sensor_id;sensor_type;location;lat;lon;timestamp;pressure;altitude;pressure_sealevel;temperature;humidity
74079;BME280;62437;51.544;-3.276;2023-04-07T00:01:15;101492.82;;;0.20;75.26
74079;BME280;62437;51.544;-3.276;2023-04-07T00:03:42;101495.94;;;0.54;74.16
74079;BME280;62437;51.544;-3.276;2023-04-07T00:06:07;101495.90;;;0.13;74.97
74079;BME280;62437;51.544;-3.276;2023-04-07T00:08:33;101493.44;;;0.23;75.38
74079;BME280;62437;51.544;-3.276;2023-04-07T00:10:58;101494.63;;;0.23;74.92
74079;BME280;62437;51.544;-3.276;2023-04-07T00:13:24;101493.64;;;0.30;75.69
74079;BME280;62437;51.544;-3.276;2023-04-07T00:15:50;101490.35;;;0.67;74.47
74079;BME280;62437;51.544;-3.276;2023-04-07T00:18:16;101490.71;;;0.57;73.78
74079;BME280;62437;51.544;-3.276;2023-04-07T00:20:41;101487.79;;;0.42;73.73
74079;BME280;62437;51.544;-3.276;2023-04-07T00:23:07;101487.07;;;0.58;73.79
74079;BME280;62437;51.544;-3.276;2023-04-07T00:25:33;101487.73;;;0.39;73.71
74079;BME280;62437;51.544;-3.276;2023-04-07T00:27:59;101486.11;;;0.53;73.08
74079;BME280;62437;51.544;-3.276;2023-04-07T00:30:25;101490.51;;;0.96;73.11
74079;BME280;62437;51.544;-3.276;2023-04-07T00:32:50;101489.93;;;0.81;72.40
74079;BME280;62437;51.544;-3.276;2023-04-07T00:35:16;101493.84;;;0.75;73.40
74079;BME280;62437;51.544;-3.276;2023-04-07T00:37:42;101496.79;;;0.76;72.99
74079;BME280;62437;51.544;-3.276;2023-04-07T00:40:09;101497.45;;;0.75;73.39
74079;BME280;62437;51.544;-3.276;2023-04-07T00:42:34;101498.86;;;0.62;73.04
74079;BME280;62437;51.544;-3.276;2023-04-07T00:44:59;101499.32;;;0.94;72.39
74079;BME280;62437;51.544;-3.276;2023-04-07T00:47:25;101502.22;;;0.01;75.00
74079;BME280;62437;51.544;-3.276;2023-04-07T00:49:51;101499.29;;;0.19;73.74
74079;BME280;62437;51.544;-3.276;2023-04-07T00:52:18;101495.65;;;0.19;73.31
74079;BME280;62437;51.544;-3.276;2023-04-07T00:54:43;101494.33;;;0.30;74.24
74079;BME280;62437;51.544;-3.276;2023-04-07T00:57:08;101493.30;;;-0.03;73.94
74079;BME280;62437;51.544;-3.276;2023-04-07T00:59:34;101494.59;;;0.11;74.61
74079;BME280;62437;51.544;-3.276;2023-04-07T01:02:04;101495.42;;;0.41;72.81
74079;BME280;62437;51.544;-3.276;2023-04-07T01:04:30;101499.23;;;-0.13;74.65
74079;BME280;62437;51.544;-3.276;2023-04-07T01:06:53;101502.66;;;-0.17;74.55
74079;BME280;62437;51.544;-3.276;2023-04-07T01:09:20;101501.76;;;-0.03;74.37
74079;BME280;62437;51.544;-3.276;2023-04-07T01:11:47;101504.45;;;-0.41;75.26
74079;BME280;62437;51.544;-3.276;2023-04-07T01:14:10;101503.49;;;-0.25;74.90
74079;BME280;62437;51.544;-3.276;2023-04-07T01:16:38;101502.40;;;-0.02;75.08
74079;BME280;62437;51.544;-3.276;2023-04-07T01:19:05;101500.41;;;-0.27;74.54
74079;BME280;62437;51.544;-3.276;2023-04-07T01:21:27;101498.41;;;-0.16;75.33
74079;BME280;62437;51.544;-3.276;2023-04-07T01:24:04;101501.41;;;-0.01;75.06
74079;BME280;62437;51.544;-3.276;2023-04-07T01:26:22;101497.80;;;0.06;75.71
74079;BME280;62437;51.544;-3.276;2023-04-07T01:31:11;101493.98;;;-0.09;74.71
74079;BME280;62437;51.544;-3.276;2023-04-07T01:33:36;101489.51;;;0.11;74.14
74079;BME280;62437;51.544;-3.276;2023-04-07T01:36:02;101487.51;;;0.10;74.26
74079;BME280;62437;51.544;-3.276;2023-04-07T01:38:28;101484.78;;;-0.19;75.15
74079;BME280;62437;51.544;-3.276;2023-04-07T01:40:53;101477.28;;;0.17;75.00
74079;BME280;62437;51.544;-3.276;2023-04-07T01:43:19;101472.90;;;-0.21;74.34
74079;BME280;62437;51.544;-3.276;2023-04-07T01:45:45;101469.69;;;-0.25;74.11
74079;BME280;62437;51.544;-3.276;2023-04-07T01:48:10;101469.54;;;-0.48;75.17
74079;BME280;62437;51.544;-3.276;2023-04-07T01:50:37;101470.17;;;-0.68;74.47
74079;BME280;62437;51.544;-3.276;2023-04-07T01:53:02;101471.14;;;-0.35;75.13
74079;BME280;62437;51.544;-3.276;2023-04-07T01:55:28;101472.38;;;-0.32;75.62
74079;BME280;62437;51.544;-3.276;2023-04-07T01:57:53;101465.20;;;-0.19;73.86
74079;BME280;62437;51.544;-3.276;2023-04-07T02:00:19;101464.82;;;0.01;74.44
74079;BME280;62437;51.544;-3.276;2023-04-07T02:02:48;101469.55;;;-0.42;74.84
74079;BME280;62437;51.544;-3.276;2023-04-07T02:05:13;101471.52;;;-0.35;75.22
74079;BME280;62437;51.544;-3.276;2023-04-07T02:07:41;101469.95;;;-0.15;75.10
74079;BME280;62437;51.544;-3.276;2023-04-07T02:10:07;101472.22;;;0.10;76.01
74079;BME280;62437;51.544;-3.276;2023-04-07T02:12:29;101474.99;;;0.01;74.66
74079;BME280;62437;51.544;-3.276;2023-04-07T02:14:54;101470.94;;;0.13;73.91
74079;BME280;62437;51.544;-3.276;2023-04-07T02:17:21;101471.91;;;-0.10;74.47
74079;BME280;62437;51.544;-3.276;2023-04-07T02:19:46;101474.74;;;-0.23;74.57
74079;BME280;62437;51.544;-3.276;2023-04-07T02:22:12;101477.47;;;-0.22;74.48
74079;BME280;62437;51.544;-3.276;2023-04-07T02:24:40;101477.06;;;-0.65;74.13
74079;BME280;62437;51.544;-3.276;2023-04-07T02:27:03;101478.69;;;-0.59;74.89
74079;BME280;62437;51.544;-3.276;2023-04-07T02:29:29;101474.70;;;-0.77;75.63
74079;BME280;62437;51.544;-3.276;2023-04-07T02:31:55;101474.91;;;-0.58;75.36
74079;BME280;62437;51.544;-3.276;2023-04-07T02:34:20;101474.90;;;-0.63;76.18
74079;BME280;62437;51.544;-3.276;2023-04-07T02:36:46;101464.67;;;-0.75;75.64
74079;BME280;62437;51.544;-3.276;2023-04-07T02:39:12;101466.94;;;-0.70;75.08
74079;BME280;62437;51.544;-3.276;2023-04-07T02:41:38;101465.20;;;-0.36;75.40
74079;BME280;62437;51.544;-3.276;2023-04-07T02:44:04;101468.65;;;-0.54;75.18
74079;BME280;62437;51.544;-3.276;2023-04-07T02:46:29;101466.83;;;-0.81;74.83
74079;BME280;62437;51.544;-3.276;2023-04-07T02:48:55;101463.67;;;-0.26;74.50
74079;BME280;62437;51.544;-3.276;2023-04-07T02:51:21;101468.56;;;-0.21;74.45
74079;BME280;62437;51.544;-3.276;2023-04-07T02:53:47;101463.61;;;0.07;73.22
74079;BME280;62437;51.544;-3.276;2023-04-07T02:56:13;101469.01;;;-0.39;73.99
74079;BME280;62437;51.544;-3.276;2023-04-07T02:58:38;101467.73;;;-0.39;73.94
74079;BME280;62437;51.544;-3.276;2023-04-07T03:01:04;101463.49;;;-0.03;73.31
74079;BME280;62437;51.544;-3.276;2023-04-07T03:03:30;101466.72;;;-0.46;74.15
74079;BME280;62437;51.544;-3.276;2023-04-07T03:05:56;101463.60;;;-0.71;74.85
74079;BME280;62437;51.544;-3.276;2023-04-07T03:08:22;101464.81;;;-0.30;73.93
74079;BME280;62437;51.544;-3.276;2023-04-07T03:10:48;101467.47;;;-0.39;74.13
74079;BME280;62437;51.544;-3.276;2023-04-07T03:13:13;101465.35;;;0.11;72.30
74079;BME280;62437;51.544;-3.276;2023-04-07T03:15:39;101467.18;;;-0.25;71.80
74079;BME280;62437;51.544;-3.276;2023-04-07T03:18:05;101463.20;;;0.05;70.68
74079;BME280;62437;51.544;-3.276;2023-04-07T03:20:31;101466.37;;;-0.68;73.48
74079;BME280;62437;51.544;-3.276;2023-04-07T03:22:57;101471.95;;;-0.83;74.87
74079;BME280;62437;51.544;-3.276;2023-04-07T03:25:24;101476.94;;;-1.01;76.17
74079;BME280;62437;51.544;-3.276;2023-04-07T03:27:48;101480.75;;;-0.09;74.75
74079;BME280;62437;51.544;-3.276;2023-04-07T03:30:14;101490.71;;;-0.29;73.43
74079;BME280;62437;51.544;-3.276;2023-04-07T03:32:40;101486.54;;;-0.30;72.03
74079;BME280;62437;51.544;-3.276;2023-04-07T03:35:06;101491.14;;;-0.56;73.99
74079;BME280;62437;51.544;-3.276;2023-04-07T03:37:32;101491.22;;;-0.67;74.03
74079;BME280;62437;51.544;-3.276;2023-04-07T03:39:57;101494.82;;;-0.45;73.89
74079;BME280;62437;51.544;-3.276;2023-04-07T03:42:23;101495.36;;;-1.03;74.07
74079;BME280;62437;51.544;-3.276;2023-04-07T03:44:49;101495.03;;;-0.98;74.61
74079;BME280;62437;51.544;-3.276;2023-04-07T03:47:15;101495.30;;;-0.72;73.76
74079;BME280;62437;51.544;-3.276;2023-04-07T03:49:40;101499.83;;;-0.69;74.62
74079;BME280;62437;51.544;-3.276;2023-04-07T03:52:06;101503.09;;;-0.88;74.78
74079;BME280;62437;51.544;-3.276;2023-04-07T03:54:32;101500.89;;;-1.13;74.75
74079;BME280;62437;51.544;-3.276;2023-04-07T03:56:58;101504.62;;;-1.21;74.93
74079;BME280;62437;51.544;-3.276;2023-04-07T03:59:24;101504.81;;;-1.02;75.07
74079;BME280;62437;51.544;-3.276;2023-04-07T04:01:50;101506.96;;;-1.29;75.70
74079;BME280;62437;51.544;-3.276;2023-04-07T04:04:15;101507.37;;;-1.37;75.91
74079;BME280;62437;51.544;-3.276;2023-04-07T04:06:41;101509.19;;;-1.33;75.87
74079;BME280;62437;51.544;-3.276;2023-04-07T04:09:07;101511.02;;;-1.46;75.18
74079;BME280;62437;51.544;-3.276;2023-04-07T04:11:33;101507.99;;;-0.86;74.44
74079;BME280;62437;51.544;-3.276;2023-04-07T04:13:59;101508.33;;;-1.09;75.49
74079;BME280;62437;51.544;-3.276;2023-04-07T04:16:25;101509.06;;;-0.97;75.17
74079;BME280;62437;51.544;-3.276;2023-04-07T04:18:51;101509.19;;;-1.26;75.32
74079;BME280;62437;51.544;-3.276;2023-04-07T04:21:16;101513.12;;;-1.02;73.98
74079;BME280;62437;51.544;-3.276;2023-04-07T04:23:42;101508.73;;;-1.21;74.46
74079;BME280;62437;51.544;-3.276;2023-04-07T04:26:07;101505.99;;;-1.19;74.45
74079;BME280;62437;51.544;-3.276;2023-04-07T04:28:33;101509.97;;;-1.13;75.03
74079;BME280;62437;51.544;-3.276;2023-04-07T04:30:58;101510.59;;;-1.35;75.62
74079;BME280;62437;51.544;-3.276;2023-04-07T04:33:24;101515.39;;;-1.75;76.97
74079;BME280;62437;51.544;-3.276;2023-04-07T04:35:49;101517.31;;;-1.58;77.20
74079;BME280;62437;51.544;-3.276;2023-04-07T04:38:15;101517.69;;;-1.37;75.88
74079;BME280;62437;51.544;-3.276;2023-04-07T04:40:39;101519.08;;;-1.66;75.80
74079;BME280;62437;51.544;-3.276;2023-04-07T04:43:05;101520.17;;;-1.04;74.84
74079;BME280;62437;51.544;-3.276;2023-04-07T04:45:31;101524.26;;;-0.58;73.61
74079;BME280;62437;51.544;-3.276;2023-04-07T04:47:57;101529.16;;;-1.07;74.61
74079;BME280;62437;51.544;-3.276;2023-04-07T04:50:23;101530.92;;;-1.00;74.48
74079;BME280;62437;51.544;-3.276;2023-04-07T04:52:49;101531.84;;;-1.37;75.00
74079;BME280;62437;51.544;-3.276;2023-04-07T04:55:15;101534.04;;;-1.58;75.84
74079;BME280;62437;51.544;-3.276;2023-04-07T04:57:40;101532.09;;;-0.97;75.28
74079;BME280;62437;51.544;-3.276;2023-04-07T05:00:07;101531.98;;;-1.47;75.14
74079;BME280;62437;51.544;-3.276;2023-04-07T05:02:32;101537.52;;;-1.49;75.05
74079;BME280;62437;51.544;-3.276;2023-04-07T05:04:58;101539.21;;;-1.62;75.06
74079;BME280;62437;51.544;-3.276;2023-04-07T05:07:24;101538.30;;;-1.52;75.36
74079;BME280;62437;51.544;-3.276;2023-04-07T05:09:49;101537.34;;;-1.61;75.24
74079;BME280;62437;51.544;-3.276;2023-04-07T05:12:15;101536.00;;;-1.76;74.34
74079;BME280;62437;51.544;-3.276;2023-04-07T05:14:41;101536.93;;;-1.25;74.67
74079;BME280;62437;51.544;-3.276;2023-04-07T05:17:07;101535.68;;;-1.54;74.80
74079;BME280;62437;51.544;-3.276;2023-04-07T05:19:33;101535.17;;;-1.36;75.69
74079;BME280;62437;51.544;-3.276;2023-04-07T05:21:58;101538.04;;;-1.48;74.61
74079;BME280;62437;51.544;-3.276;2023-04-07T05:24:27;101537.17;;;-1.26;74.99
74079;BME280;62437;51.544;-3.276;2023-04-07T05:26:50;101542.06;;;-1.62;74.83
74079;BME280;62437;51.544;-3.276;2023-04-07T05:29:15;101542.10;;;-1.72;74.82
74079;BME280;62437;51.544;-3.276;2023-04-07T05:31:41;101546.17;;;-1.52;75.55
74079;BME280;62437;51.544;-3.276;2023-04-07T05:34:07;101548.43;;;-1.91;75.78
74079;BME280;62437;51.544;-3.276;2023-04-07T05:36:33;101548.71;;;-1.90;76.39
74079;BME280;62437;51.544;-3.276;2023-04-07T05:38:58;101548.74;;;-1.79;76.09
74079;BME280;62437;51.544;-3.276;2023-04-07T05:41:23;101554.51;;;-1.64;75.93
74079;BME280;62437;51.544;-3.276;2023-04-07T05:43:49;101557.58;;;-1.92;76.44
74079;BME280;62437;51.544;-3.276;2023-04-07T05:46:15;101557.23;;;-2.03;76.18
74079;BME280;62437;51.544;-3.276;2023-04-07T05:48:41;101553.91;;;-1.80;76.42
74079;BME280;62437;51.544;-3.276;2023-04-07T05:51:07;101557.08;;;-1.63;76.29
74079;BME280;62437;51.544;-3.276;2023-04-07T05:53:32;101561.37;;;-1.92;76.57
74079;BME280;62437;51.544;-3.276;2023-04-07T05:55:57;101559.86;;;-2.26;76.87
74079;BME280;62437;51.544;-3.276;2023-04-07T05:58:22;101559.74;;;-1.61;77.10
74079;BME280;62437;51.544;-3.276;2023-04-07T06:00:49;101561.83;;;-1.48;77.21
74079;BME280;62437;51.544;-3.276;2023-04-07T06:03:14;101562.46;;;-1.54;76.33
74079;BME280;62437;51.544;-3.276;2023-04-07T06:05:40;101561.71;;;-1.64;76.51
74079;BME280;62437;51.544;-3.276;2023-04-07T06:08:06;101560.31;;;-1.58;76.85
74079;BME280;62437;51.544;-3.276;2023-04-07T06:10:31;101561.15;;;-1.53;77.70
74079;BME280;62437;51.544;-3.276;2023-04-07T06:12:57;101561.62;;;-1.08;76.97
74079;BME280;62437;51.544;-3.276;2023-04-07T06:15:23;101559.92;;;-1.11;76.43
74079;BME280;62437;51.544;-3.276;2023-04-07T06:17:49;101556.19;;;-0.84;76.20
74079;BME280;62437;51.544;-3.276;2023-04-07T06:20:15;101555.87;;;-0.87;75.36
74079;BME280;62437;51.544;-3.276;2023-04-07T06:22:41;101558.97;;;-0.67;74.94
74079;BME280;62437;51.544;-3.276;2023-04-07T06:25:07;101562.50;;;-0.73;74.71
74079;BME280;62437;51.544;-3.276;2023-04-07T06:27:32;101566.01;;;-1.54;77.22
74079;BME280;62437;51.544;-3.276;2023-04-07T06:29:58;101573.69;;;-1.48;78.52
74079;BME280;62437;51.544;-3.276;2023-04-07T06:32:24;101573.29;;;-1.23;79.00
74079;BME280;62437;51.544;-3.276;2023-04-07T06:34:50;101575.42;;;-0.95;78.28
74079;BME280;62437;51.544;-3.276;2023-04-07T06:37:16;101575.77;;;-0.44;75.29
74079;BME280;62437;51.544;-3.276;2023-04-07T06:39:41;101577.22;;;-0.82;76.17
74079;BME280;62437;51.544;-3.276;2023-04-07T06:42:07;101578.22;;;-0.63;75.14
74079;BME280;62437;51.544;-3.276;2023-04-07T06:44:33;101581.93;;;-0.28;74.23
74079;BME280;62437;51.544;-3.276;2023-04-07T06:46:59;101577.82;;;-0.29;73.56
74079;BME280;62437;51.544;-3.276;2023-04-07T06:49:25;101575.20;;;1.90;67.76
74079;BME280;62437;51.544;-3.276;2023-04-07T06:51:50;101575.23;;;0.73;70.12
74079;BME280;62437;51.544;-3.276;2023-04-07T06:54:16;101576.87;;;0.48;71.40
74079;BME280;62437;51.544;-3.276;2023-04-07T06:56:43;101581.52;;;0.21;71.57
74079;BME280;62437;51.544;-3.276;2023-04-07T06:59:08;101580.79;;;1.38;68.86
74079;BME280;62437;51.544;-3.276;2023-04-07T07:01:34;101581.54;;;1.44;69.23
74079;BME280;62437;51.544;-3.276;2023-04-07T07:03:59;101586.32;;;0.28;72.18
74079;BME280;62437;51.544;-3.276;2023-04-07T07:06:25;101588.34;;;0.18;71.28
74079;BME280;62437;51.544;-3.276;2023-04-07T07:08:51;101582.57;;;0.41;72.33
74079;BME280;62437;51.544;-3.276;2023-04-07T07:11:17;101586.03;;;-0.11;74.98
74079;BME280;62437;51.544;-3.276;2023-04-07T07:13:43;101587.14;;;0.17;74.12
74079;BME280;62437;51.544;-3.276;2023-04-07T07:16:08;101583.78;;;1.47;70.31
74079;BME280;62437;51.544;-3.276;2023-04-07T07:18:35;101590.96;;;0.35;72.38
74079;BME280;62437;51.544;-3.276;2023-04-07T07:21:00;101591.03;;;0.26;74.30
74079;BME280;62437;51.544;-3.276;2023-04-07T07:23:26;101594.83;;;0.34;74.27
74079;BME280;62437;51.544;-3.276;2023-04-07T07:25:52;101592.74;;;2.40;67.57
74079;BME280;62437;51.544;-3.276;2023-04-07T07:28:17;101596.45;;;1.41;70.01
74079;BME280;62437;51.544;-3.276;2023-04-07T07:30:43;101607.79;;;0.19;73.90
74079;BME280;62437;51.544;-3.276;2023-04-07T07:33:09;101609.64;;;0.41;74.85
74079;BME280;62437;51.544;-3.276;2023-04-07T07:35:35;101609.29;;;0.27;74.79
74079;BME280;62437;51.544;-3.276;2023-04-07T07:38:01;101607.62;;;0.84;74.21
74079;BME280;62437;51.544;-3.276;2023-04-07T07:40:26;101603.71;;;1.04;72.99
74079;BME280;62437;51.544;-3.276;2023-04-07T07:42:52;101605.29;;;0.77;72.42
74079;BME280;62437;51.544;-3.276;2023-04-07T07:45:18;101612.60;;;0.23;75.12
74079;BME280;62437;51.544;-3.276;2023-04-07T07:47:44;101607.36;;;2.03;71.22
74079;BME280;62437;51.544;-3.276;2023-04-07T07:50:10;101605.20;;;2.26;69.27
74079;BME280;62437;51.544;-3.276;2023-04-07T07:52:35;101606.81;;;1.52;72.69
74079;BME280;62437;51.544;-3.276;2023-04-07T07:55:01;101609.47;;;2.12;69.89
74079;BME280;62437;51.544;-3.276;2023-04-07T07:57:27;101609.14;;;2.16;71.94
74079;BME280;62437;51.544;-3.276;2023-04-07T07:59:53;101604.17;;;3.30;67.99
74079;BME280;62437;51.544;-3.276;2023-04-07T08:02:18;101610.05;;;3.54;66.12
74079;BME280;62437;51.544;-3.276;2023-04-07T08:04:44;101611.78;;;2.20;70.26
74079;BME280;62437;51.544;-3.276;2023-04-07T08:07:10;101618.70;;;2.04;70.70
74079;BME280;62437;51.544;-3.276;2023-04-07T08:09:36;101615.61;;;2.46;70.07
74079;BME280;62437;51.544;-3.276;2023-04-07T08:12:02;101614.51;;;2.38;69.01
74079;BME280;62437;51.544;-3.276;2023-04-07T08:14:27;101614.06;;;2.22;70.64
74079;BME280;62437;51.544;-3.276;2023-04-07T08:16:53;101618.53;;;2.03;70.46
74079;BME280;62437;51.544;-3.276;2023-04-07T08:19:19;101615.52;;;2.98;68.18
74079;BME280;62437;51.544;-3.276;2023-04-07T08:21:45;101615.15;;;3.14;66.75
74079;BME280;62437;51.544;-3.276;2023-04-07T08:24:10;101617.19;;;4.26;65.11
74079;BME280;62437;51.544;-3.276;2023-04-07T08:26:36;101615.83;;;4.73;62.74
74079;BME280;62437;51.544;-3.276;2023-04-07T08:29:02;101621.77;;;2.91;66.05
74079;BME280;62437;51.544;-3.276;2023-04-07T08:31:28;101622.21;;;4.30;65.08
74079;BME280;62437;51.544;-3.276;2023-04-07T08:33:54;101619.67;;;3.46;65.23
74079;BME280;62437;51.544;-3.276;2023-04-07T08:36:19;101624.88;;;4.09;65.00
74079;BME280;62437;51.544;-3.276;2023-04-07T08:38:45;101621.32;;;3.20;66.91
74079;BME280;62437;51.544;-3.276;2023-04-07T08:41:12;101618.71;;;4.69;65.76
74079;BME280;62437;51.544;-3.276;2023-04-07T08:43:38;101616.59;;;4.74;63.88
74079;BME280;62437;51.544;-3.276;2023-04-07T08:46:03;101623.32;;;4.09;64.76
74079;BME280;62437;51.544;-3.276;2023-04-07T08:48:29;101622.84;;;4.42;66.02
74079;BME280;62437;51.544;-3.276;2023-04-07T08:50:54;101617.77;;;4.63;64.76
74079;BME280;62437;51.544;-3.276;2023-04-07T08:53:23;101612.47;;;5.04;63.51
74079;BME280;62437;51.544;-3.276;2023-04-07T08:55:45;101614.69;;;5.09;61.85
74079;BME280;62437;51.544;-3.276;2023-04-07T08:58:13;101608.53;;;6.36;60.29
74079;BME280;62437;51.544;-3.276;2023-04-07T09:00:37;101605.43;;;7.01;58.54
74079;BME280;62437;51.544;-3.276;2023-04-07T09:03:02;101606.18;;;6.61;58.81
74079;BME280;62437;51.544;-3.276;2023-04-07T09:05:29;101605.55;;;6.32;58.95
74079;BME280;62437;51.544;-3.276;2023-04-07T09:07:54;101610.14;;;5.70;58.66
74079;BME280;62437;51.544;-3.276;2023-04-07T09:10:20;101609.22;;;5.29;59.49
74079;BME280;62437;51.544;-3.276;2023-04-07T09:12:45;101609.84;;;4.58;61.14
74079;BME280;62437;51.544;-3.276;2023-04-07T09:15:11;101609.53;;;4.87;59.72
74079;BME280;62437;51.544;-3.276;2023-04-07T09:17:36;101605.62;;;5.24;58.41
74079;BME280;62437;51.544;-3.276;2023-04-07T09:20:03;101606.75;;;5.62;55.46
74079;BME280;62437;51.544;-3.276;2023-04-07T09:22:34;101607.45;;;5.03;55.92
74079;BME280;62437;51.544;-3.276;2023-04-07T09:27:19;101610.99;;;5.30;55.84
74079;BME280;62437;51.544;-3.276;2023-04-07T09:29:46;101608.03;;;5.57;56.06
74079;BME280;62437;51.544;-3.276;2023-04-07T09:32:12;101614.41;;;5.05;56.54
74079;BME280;62437;51.544;-3.276;2023-04-07T09:34:38;101610.81;;;6.00;57.17
74079;BME280;62437;51.544;-3.276;2023-04-07T09:37:04;101607.31;;;5.84;56.55
74079;BME280;62437;51.544;-3.276;2023-04-07T09:39:28;101599.51;;;8.04;60.04
74079;BME280;62437;51.544;-3.276;2023-04-07T09:41:54;101598.90;;;5.99;53.76
74079;BME280;62437;51.544;-3.276;2023-04-07T09:44:20;101597.84;;;5.73;54.27
74079;BME280;62437;51.544;-3.276;2023-04-07T09:46:50;101596.98;;;6.78;50.84
74079;BME280;62437;51.544;-3.276;2023-04-07T09:49:11;101594.57;;;6.30;51.19
74079;BME280;62437;51.544;-3.276;2023-04-07T09:51:37;101596.50;;;6.85;59.92
74079;BME280;62437;51.544;-3.276;2023-04-07T09:54:02;101590.38;;;7.16;51.93
74079;BME280;62437;51.544;-3.276;2023-04-07T09:56:28;101589.75;;;6.57;49.67
74079;BME280;62437;51.544;-3.276;2023-04-07T09:58:54;101594.69;;;6.67;50.49
74079;BME280;62437;51.544;-3.276;2023-04-07T10:01:20;101593.08;;;6.67;50.77
74079;BME280;62437;51.544;-3.276;2023-04-07T10:03:46;101590.01;;;8.39;51.95
74079;BME280;62437;51.544;-3.276;2023-04-07T10:06:11;101589.00;;;7.44;48.97
74079;BME280;62437;51.544;-3.276;2023-04-07T10:08:40;101590.49;;;7.48;56.65
74079;BME280;62437;51.544;-3.276;2023-04-07T10:11:04;101591.01;;;8.59;52.66
74079;BME280;62437;51.544;-3.276;2023-04-07T10:13:29;101589.41;;;7.92;50.94
74079;BME280;62437;51.544;-3.276;2023-04-07T10:15:55;101585.57;;;7.29;51.43
74079;BME280;62437;51.544;-3.276;2023-04-07T10:18:20;101582.63;;;7.63;50.20
74079;BME280;62437;51.544;-3.276;2023-04-07T10:20:46;101582.90;;;8.52;60.14
74079;BME280;62437;51.544;-3.276;2023-04-07T10:23:17;101580.70;;;7.77;57.07
74079;BME280;62437;51.544;-3.276;2023-04-07T10:25:38;101579.32;;;7.71;56.64
74079;BME280;62437;51.544;-3.276;2023-04-07T10:28:05;101577.54;;;7.95;54.51
74079;BME280;62437;51.544;-3.276;2023-04-07T10:30:30;101576.13;;;7.70;53.75
74079;BME280;62437;51.544;-3.276;2023-04-07T10:32:54;101569.93;;;8.13;55.28
74079;BME280;62437;51.544;-3.276;2023-04-07T10:35:20;101572.28;;;8.11;52.58
74079;BME280;62437;51.544;-3.276;2023-04-07T10:40:26;101563.15;;;7.12;49.52
74079;BME280;62437;51.544;-3.276;2023-04-07T10:42:45;101565.58;;;8.36;51.20
74079;BME280;62437;51.544;-3.276;2023-04-07T10:45:03;101557.28;;;7.36;48.97
74079;BME280;62437;51.544;-3.276;2023-04-07T10:47:28;101553.80;;;9.01;55.12
74079;BME280;62437;51.544;-3.276;2023-04-07T10:52:23;101547.82;;;9.37;54.30
74079;BME280;62437;51.544;-3.276;2023-04-07T10:54:45;101546.17;;;8.91;50.22
74079;BME280;62437;51.544;-3.276;2023-04-07T10:57:11;101552.98;;;8.88;60.99
74079;BME280;62437;51.544;-3.276;2023-04-07T10:59:37;101550.80;;;8.89;60.78
74079;BME280;62437;51.544;-3.276;2023-04-07T11:04:35;101552.97;;;8.52;65.37
74079;BME280;62437;51.544;-3.276;2023-04-07T11:06:53;101551.40;;;7.80;55.22
74079;BME280;62437;51.544;-3.276;2023-04-07T11:09:19;101547.12;;;7.18;47.75
74079;BME280;62437;51.544;-3.276;2023-04-07T11:11:45;101546.53;;;7.87;45.69
74079;BME280;62437;51.544;-3.276;2023-04-07T11:14:10;101545.54;;;9.23;54.57
74079;BME280;62437;51.544;-3.276;2023-04-07T11:16:40;101543.25;;;9.72;54.19
74079;BME280;62437;51.544;-3.276;2023-04-07T11:19:01;101535.36;;;9.51;55.91
74079;BME280;62437;51.544;-3.276;2023-04-07T11:21:27;101537.94;;;9.66;43.46
74079;BME280;62437;51.544;-3.276;2023-04-07T11:23:53;101537.14;;;8.97;42.89
74079;BME280;62437;51.544;-3.276;2023-04-07T11:26:18;101535.88;;;9.31;44.89
74079;BME280;62437;51.544;-3.276;2023-04-07T11:28:45;101537.92;;;9.58;48.86
74079;BME280;62437;51.544;-3.276;2023-04-07T11:31:10;101534.22;;;9.41;45.69
74079;BME280;62437;51.544;-3.276;2023-04-07T11:33:36;101534.47;;;8.11;43.92
74079;BME280;62437;51.544;-3.276;2023-04-07T11:36:02;101541.42;;;8.05;44.70
74079;BME280;62437;51.544;-3.276;2023-04-07T11:38:28;101539.58;;;7.75;44.66
74079;BME280;62437;51.544;-3.276;2023-04-07T11:40:53;101537.42;;;9.70;58.13
74079;BME280;62437;51.544;-3.276;2023-04-07T11:43:19;101537.39;;;10.43;58.87
74079;BME280;62437;51.544;-3.276;2023-04-07T11:45:44;101535.09;;;8.56;51.17
74079;BME280;62437;51.544;-3.276;2023-04-07T11:50:40;101536.39;;;8.47;41.00
74079;BME280;62437;51.544;-3.276;2023-04-07T11:53:01;101537.76;;;9.16;47.80
74079;BME280;62437;51.544;-3.276;2023-04-07T11:55:26;101535.98;;;9.19;44.87
74079;BME280;62437;51.544;-3.276;2023-04-07T11:57:52;101535.39;;;8.75;42.97
74079;BME280;62437;51.544;-3.276;2023-04-07T12:00:19;101537.27;;;9.45;55.11
74079;BME280;62437;51.544;-3.276;2023-04-07T12:02:43;101543.21;;;10.48;52.94
74079;BME280;62437;51.544;-3.276;2023-04-07T12:05:09;101540.75;;;9.25;45.11
74079;BME280;62437;51.544;-3.276;2023-04-07T12:07:35;101540.87;;;10.40;53.31
74079;BME280;62437;51.544;-3.276;2023-04-07T12:12:27;101537.83;;;9.01;44.97
74079;BME280;62437;51.544;-3.276;2023-04-07T12:14:52;101536.33;;;9.08;42.62
74079;BME280;62437;51.544;-3.276;2023-04-07T12:17:22;101538.67;;;10.79;59.59
74079;BME280;62437;51.544;-3.276;2023-04-07T12:19:43;101540.79;;;9.22;47.18
74079;BME280;62437;51.544;-3.276;2023-04-07T12:22:09;101544.01;;;10.40;61.90
74079;BME280;62437;51.544;-3.276;2023-04-07T12:24:35;101538.74;;;9.05;52.87
74079;BME280;62437;51.544;-3.276;2023-04-07T12:27:00;101532.54;;;9.28;55.01
74079;BME280;62437;51.544;-3.276;2023-04-07T12:29:26;101530.80;;;8.97;47.84
74079;BME280;62437;51.544;-3.276;2023-04-07T12:31:51;101535.04;;;10.67;58.95
74079;BME280;62437;51.544;-3.276;2023-04-07T12:34:19;101528.55;;;10.09;52.48
74079;BME280;62437;51.544;-3.276;2023-04-07T12:36:43;101523.75;;;9.63;48.44
74079;BME280;62437;51.544;-3.276;2023-04-07T12:39:08;101524.11;;;10.87;52.17
74079;BME280;62437;51.544;-3.276;2023-04-07T12:41:34;101526.96;;;11.46;59.51
74079;BME280;62437;51.544;-3.276;2023-04-07T12:44:00;101519.65;;;9.34;46.75
74079;BME280;62437;51.544;-3.276;2023-04-07T12:46:25;101522.61;;;9.76;46.04
74079;BME280;62437;51.544;-3.276;2023-04-07T12:48:51;101520.53;;;9.91;44.16
74079;BME280;62437;51.544;-3.276;2023-04-07T12:51:17;101520.62;;;9.25;43.88
74079;BME280;62437;51.544;-3.276;2023-04-07T12:53:42;101527.45;;;10.70;58.73